Time;durP1;ratioP1;P1;durP2;ratioP2;P2;SDS_P1;SDS_P2;PMS_P1;PMS_P2;Temp;Humidity;BMP_temperature;BMP_pressure;BME280_temperature;BME280_humidity;BME280_pressure;Samples;Min_cycle;Max_cycle;Signal;HPM_P1;HPM_P2
2021/05/01 00:01:43;;;;;;;0.30;0.20;;;;;;;7.90;89.43;99963.91;5033427;28;20506;-57
2021/05/01 00:04:10;;;;;;;0.40;0.30;;;;;;;7.89;89.59;99972.75;5033493;28;21000;-57
2021/05/01 00:06:36;;;;;;;0.30;0.20;;;;;;;7.69;91.72;99968.78;5033403;28;20480;-57
2021/05/01 00:09:02;;;;;;;0.97;0.80;;;;;;;7.85;89.69;99971.97;5016036;28;20522;-57
2021/05/01 00:11:28;;;;;;;0.30;0.20;;;;;;;7.92;89.51;99973.53;5033607;28;20456;-57
2021/05/01 00:13:56;;;;;;;0.30;0.20;;;;;;;7.97;89.21;99971.69;5025467;28;21044;-57
2021/05/01 00:16:23;;;;;;;0.30;0.20;;;;;;;7.90;90.25;99967.41;5032088;28;20487;-57
2021/05/01 00:18:49;;;;;;;0.83;0.83;;;;;;;8.01;88.97;99965.41;5033662;28;20451;-57
2021/05/01 00:21:16;;;;;;;0.30;0.20;;;;;;;8.01;88.00;99965.41;5033452;28;20527;-57
2021/05/01 00:23:42;;;;;;;0.30;0.10;;;;;;;8.03;87.93;99960.06;5033395;28;20984;-57
2021/05/01 00:26:10;;;;;;;0.30;0.20;;;;;;;7.94;88.59;99954.97;5033318;28;20505;-57
2021/05/01 00:28:38;;;;;;;0.30;0.20;;;;;;;8.02;88.31;99955.69;5033409;28;20479;-57
2021/05/01 00:31:05;;;;;;;0.30;0.20;;;;;;;8.08;88.60;99952.00;5032897;28;21030;-57
2021/05/01 00:33:31;;;;;;;0.30;0.20;;;;;;;8.00;89.94;99946.91;5032955;28;20499;-57
2021/05/01 00:35:57;;;;;;;0.30;0.30;;;;;;;8.12;87.69;99949.28;5032922;28;20995;-56
2021/05/01 00:38:24;;;;;;;0.30;0.20;;;;;;;8.09;87.48;99952.00;5015284;28;21063;-57
2021/05/01 00:40:50;;;;;;;1.33;1.30;;;;;;;8.03;88.45;99945.06;5032990;28;20935;-56
2021/05/01 00:43:17;;;;;;;0.30;0.20;;;;;;;8.08;89.10;99941.41;5033206;28;20518;-57
2021/05/01 00:45:43;;;;;;;0.30;0.20;;;;;;;8.17;88.04;99943.84;5032704;28;20502;-57
2021/05/01 00:48:11;;;;;;;0.40;0.30;;;;;;;8.20;87.02;99941.13;5032792;28;20559;-57
2021/05/01 00:50:37;;;;;;;1.97;0.63;;;;;;;8.16;86.75;99928.88;5029436;28;20518;-57
2021/05/01 00:53:03;;;;;;;0.30;0.20;;;;;;;8.08;88.17;99936.13;5022359;28;21026;-56
2021/05/01 00:55:36;;;;;;;0.30;0.20;;;;;;;8.06;87.87;99930.00;5032614;28;20483;-57
2021/05/01 00:58:02;;;;;;;0.43;0.43;;;;;;;8.07;89.20;99929.97;5032468;28;20952;-57
2021/05/01 01:02:57;;;;;;;0.30;0.20;;;;;;;7.99;89.36;99931.94;5032558;28;20988;-57
2021/05/01 01:05:24;;;;;;;0.40;0.40;;;;;;;7.91;90.47;99929.47;5014762;28;20506;-57
2021/05/01 01:07:51;;;;;;;0.30;0.20;;;;;;;7.75;91.98;99928.09;5032346;28;20452;-57
2021/05/01 01:10:18;;;;;;;0.30;0.20;;;;;;;7.56;92.57;99929.41;5032323;28;20450;-57
2021/05/01 01:12:44;;;;;;;0.97;0.87;;;;;;;7.39;92.09;99928.00;5032248;28;20468;-57
2021/05/01 01:15:21;;;;;;;0.30;0.20;;;;;;;7.23;91.71;99929.22;5032079;28;20452;-57
2021/05/01 01:17:47;;;;;;;0.30;0.20;;;;;;;7.19;92.61;99918.75;5032341;28;20446;-56
2021/05/01 01:20:13;;;;;;;0.30;0.20;;;;;;;7.23;91.63;99917.78;5014995;28;20471;-57
2021/05/01 01:22:39;;;;;;;0.30;0.20;;;;;;;7.28;90.75;99916.78;5032232;28;20529;-56
2021/05/01 01:25:06;;;;;;;0.30;0.20;;;;;;;7.29;89.74;99907.97;5032192;28;21018;-57
2021/05/01 01:27:32;;;;;;;0.30;0.20;;;;;;;7.11;90.73;99903.91;5032226;28;20482;-57
2021/05/01 01:29:58;;;;;;;1.30;1.07;;;;;;;7.09;90.66;99907.50;5032385;28;20452;-57
2021/05/01 01:32:24;;;;;;;0.30;0.20;;;;;;;6.82;91.67;99899.22;5031928;28;20996;-56
2021/05/01 01:34:51;;;;;;;0.33;0.20;;;;;;;7.00;90.33;99903.28;5032193;28;20458;-56
2021/05/01 01:37:17;;;;;;;0.30;0.20;;;;;;;6.94;89.78;99899.88;5032281;28;20565;-57
2021/05/01 01:39:43;;;;;;;0.30;0.20;;;;;;;6.96;89.24;99906.88;5032237;28;20459;-57
2021/05/01 01:42:10;;;;;;;0.30;0.20;;;;;;;6.92;90.24;99913.13;5014403;28;20522;-57
2021/05/01 01:44:36;;;;;;;0.47;0.43;;;;;;;6.86;90.79;99900.06;5031972;28;20842;-56
2021/05/01 01:47:03;;;;;;;0.30;0.20;;;;;;;6.67;91.50;99911.84;5032019;28;20444;-57
2021/05/01 01:49:34;;;;;;;0.30;0.20;;;;;;;6.48;92.88;99908.69;5031817;28;20455;-56
2021/05/01 01:52:00;;;;;;;0.30;0.20;;;;;;;6.49;92.96;99911.31;5031966;28;20877;-57
2021/05/01 01:54:26;;;;;;;0.30;0.20;;;;;;;6.42;93.72;99914.06;5031963;28;20509;-57
2021/05/01 01:56:52;;;;;;;0.30;0.20;;;;;;;6.17;93.25;99913.66;5031802;28;20545;-57
2021/05/01 01:59:18;;;;;;;0.30;0.20;;;;;;;6.04;94.69;99906.81;5031974;28;20455;-57
2021/05/01 02:01:44;;;;;;;0.30;0.20;;;;;;;5.82;95.35;99903.63;5031659;28;20451;-56
2021/05/01 02:04:14;;;;;;;0.30;0.20;;;;;;;5.80;95.61;99900.13;5015961;28;20526;-57
2021/05/01 02:06:41;;;;;;;0.30;0.20;;;;;;;5.69;95.26;99902.94;5035352;28;20975;-57
2021/05/01 02:09:07;;;;;;;0.30;0.20;;;;;;;5.54;96.09;99903.16;5035731;28;20463;-57
2021/05/01 02:11:33;;;;;;;0.30;0.20;;;;;;;5.50;96.40;99904.09;5035497;28;20455;-57
2021/05/01 02:13:59;;;;;;;0.47;0.40;;;;;;;5.39;96.51;99908.66;5035417;28;20471;-56
2021/05/01 02:16:25;;;;;;;0.30;0.20;;;;;;;5.29;96.48;99910.53;5035140;28;20487;-57
2021/05/01 02:18:51;;;;;;;0.30;0.20;;;;;;;5.19;96.30;99903.63;5035403;28;20447;-57
2021/05/01 02:21:17;;;;;;;0.30;0.20;;;;;;;5.11;96.35;99913.41;5035195;28;20509;-57
2021/05/01 02:23:43;;;;;;;0.30;0.20;;;;;;;5.21;97.13;99922.94;5035219;28;20475;-57
2021/05/01 02:26:09;;;;;;;0.30;0.20;;;;;;;5.27;95.64;99920.22;5035246;28;20505;-56
2021/05/01 02:28:36;;;;;;;3.60;1.20;;;;;;;5.12;95.89;99915.16;5035177;28;20505;-57
2021/05/01 02:31:02;;;;;;;0.30;0.20;;;;;;;5.02;95.95;99920.53;5035253;28;20474;-57
2021/05/01 02:33:29;;;;;;;0.30;0.20;;;;;;;4.95;97.28;99918.88;5035470;28;20483;-56
2021/05/01 02:35:55;;;;;;;0.30;0.20;;;;;;;4.87;96.34;99925.97;5034845;28;20545;-56
2021/05/01 02:38:21;;;;;;;0.63;0.63;;;;;;;4.84;96.37;99933.91;5034993;28;20995;-56
2021/05/01 02:40:48;;;;;;;0.57;0.57;;;;;;;4.70;96.79;99927.94;5035036;28;20501;-56
2021/05/01 02:43:14;;;;;;;0.30;0.20;;;;;;;4.71;97.01;99933.16;5034811;28;20595;-56
2021/05/01 02:45:40;;;;;;;0.30;0.20;;;;;;;4.65;96.41;99932.34;5034652;28;20872;-56
2021/05/01 02:48:08;;;;;;;0.30;0.20;;;;;;;4.82;96.41;99927.78;5035123;28;20447;-56
2021/05/01 02:50:35;;;;;;;0.40;0.40;;;;;;;4.78;97.19;99923.44;5032159;28;20448;-56
2021/05/01 02:53:01;;;;;;;0.30;0.20;;;;;;;4.77;96.82;99932.22;5024746;28;20529;-56
2021/05/01 02:55:27;;;;;;;0.43;0.40;;;;;;;4.84;97.86;99920.75;5034675;28;20497;-56
2021/05/01 02:57:54;;;;;;;0.33;0.23;;;;;;;4.75;98.16;99923.47;5034694;28;20517;-56
2021/05/01 03:00:23;;;;;;;0.30;0.20;;;;;;;4.86;98.20;99915.47;5034464;28;20455;-56
2021/05/01 03:02:51;;;;;;;0.30;0.20;;;;;;;5.10;98.14;99920.44;5034828;28;20469;-56
2021/05/01 03:05:18;;;;;;;0.30;0.20;;;;;;;5.02;97.59;99925.78;5034659;28;20462;-56
2021/05/01 03:07:44;;;;;;;0.30;0.20;;;;;;;4.74;98.50;99927.00;5034759;28;20451;-56
2021/05/01 03:10:16;;;;;;;0.30;0.20;;;;;;;4.78;98.60;99920.81;5034353;28;20506;-56
2021/05/01 03:12:42;;;;;;;0.30;0.20;;;;;;;4.68;98.52;99922.69;5034401;28;20487;-56
2021/05/01 03:15:11;;;;;;;0.30;0.20;;;;;;;4.82;98.53;99919.91;5034313;28;20447;-56
2021/05/01 03:17:38;;;;;;;0.30;0.20;;;;;;;4.64;98.91;99920.06;5034400;28;20557;-56
2021/05/01 03:20:06;;;;;;;0.30;0.20;;;;;;;4.65;99.27;99913.91;5034387;28;20452;-56
2021/05/01 03:22:32;;;;;;;0.40;0.30;;;;;;;4.36;99.49;99917.72;5034240;28;20885;-56
2021/05/01 03:24:59;;;;;;;0.30;0.20;;;;;;;4.43;99.95;99918.56;5034040;28;20825;-56
2021/05/01 03:27:25;;;;;;;0.30;0.20;;;;;;;4.37;99.90;99911.56;5033994;28;20831;-56
2021/05/01 03:29:51;;;;;;;0.30;0.20;;;;;;;4.53;99.11;99911.44;5034180;28;20505;-56
2021/05/01 03:32:17;;;;;;;0.30;0.20;;;;;;;4.28;99.33;99926.59;5016399;28;20479;-56
2021/05/01 03:34:44;;;;;;;1.17;1.13;;;;;;;4.25;100.00;99916.06;5034093;28;20459;-56
2021/05/01 03:37:10;;;;;;;0.30;0.20;;;;;;;4.29;99.82;99921.31;5034148;28;20487;-56
2021/05/01 03:39:37;;;;;;;0.30;0.20;;;;;;;4.23;99.78;99929.25;5033768;28;20451;-56
2021/05/01 03:42:04;;;;;;;0.30;0.20;;;;;;;4.29;99.75;99928.34;5033766;28;20451;-56
2021/05/01 03:44:30;;;;;;;0.30;0.20;;;;;;;4.25;99.69;99924.88;5002713;28;20517;-56
2021/05/01 03:46:57;;;;;;;0.30;0.20;;;;;;;4.20;99.92;99926.66;5033694;28;20454;-56
2021/05/01 03:49:23;;;;;;;0.30;0.20;;;;;;;4.04;100.00;99925.91;5026977;28;20536;-56
2021/05/01 03:51:49;;;;;;;0.30;0.20;;;;;;;4.03;100.00;99923.28;5026824;28;20452;-56
2021/05/01 03:54:16;;;;;;;0.30;0.20;;;;;;;3.95;100.00;99925.09;5020496;28;20468;-56
2021/05/01 03:56:42;;;;;;;0.30;0.20;;;;;;;4.02;100.00;99911.91;5033299;28;20892;-53
2021/05/01 03:59:08;;;;;;;0.30;0.20;;;;;;;4.01;100.00;99917.19;5033500;28;20451;-53
2021/05/01 04:01:34;;;;;;;0.30;0.20;;;;;;;4.09;100.00;99917.97;5033607;28;20455;-53
2021/05/01 04:04:01;;;;;;;0.30;0.20;;;;;;;3.84;100.00;99912.94;5033298;28;20979;-53
2021/05/01 04:06:27;;;;;;;0.30;0.20;;;;;;;3.97;99.69;99905.78;5033715;28;20970;-54
2021/05/01 04:08:53;;;;;;;0.30;0.20;;;;;;;3.77;100.00;99912.97;5033348;28;20998;-53
2021/05/01 04:11:19;;;;;;;0.30;0.20;;;;;;;3.76;100.00;99909.47;5033409;28;20452;-54
2021/05/01 04:13:48;;;;;;;0.30;0.20;;;;;;;3.82;100.00;99919.94;5033236;28;20529;-53
2021/05/01 04:16:15;;;;;;;0.30;0.20;;;;;;;3.68;100.00;99913.91;5033232;28;20491;-54
2021/05/01 04:18:42;;;;;;;0.30;0.20;;;;;;;3.58;100.00;99917.50;5033539;28;20462;-54
2021/05/01 04:21:09;;;;;;;0.40;0.40;;;;;;;3.58;100.00;99919.25;5033004;28;20513;-53
2021/05/01 04:23:35;;;;;;;0.30;0.20;;;;;;;3.63;100.00;99914.81;5033007;28;20541;-54
2021/05/01 04:26:01;;;;;;;0.30;0.17;;;;;;;3.67;100.00;99912.16;5033028;28;20451;-54
2021/05/01 04:28:28;;;;;;;1.53;1.53;;;;;;;3.59;100.00;99913.97;5032310;28;20448;-54
2021/05/01 04:30:55;;;;;;;1.83;1.43;;;;;;;3.62;100.00;99913.94;5032897;28;20455;-54
2021/05/01 04:33:22;;;;;;;0.30;0.20;;;;;;;3.67;100.00;99913.91;5033017;28;20530;-53
2021/05/01 04:35:48;;;;;;;0.30;0.20;;;;;;;3.69;100.00;99907.75;5032726;28;20828;-54
2021/05/01 04:38:16;;;;;;;0.30;0.20;;;;;;;3.64;100.00;99906.94;5032715;28;20878;-54
2021/05/01 04:40:42;;;;;;;0.30;0.20;;;;;;;3.59;100.00;99913.97;5032584;28;20964;-54
2021/05/01 04:43:10;;;;;;;0.30;0.20;;;;;;;3.68;100.00;99906.00;5032804;28;20584;-54
2021/05/01 04:45:37;;;;;;;0.30;0.20;;;;;;;3.64;100.00;99904.28;5032606;28;20502;-54
2021/05/01 04:48:05;;;;;;;0.77;0.77;;;;;;;3.79;100.00;99904.19;5015137;28;20448;-54
2021/05/01 04:50:32;;;;;;;0.70;0.70;;;;;;;4.00;100.00;99905.78;5029955;28;20531;-53
2021/05/01 04:52:59;;;;;;;0.30;0.20;;;;;;;4.14;100.00;99905.66;5022295;28;20522;-54
2021/05/01 04:55:26;;;;;;;0.30;0.20;;;;;;;4.38;99.77;99899.28;5032586;28;20502;-54
2021/05/01 04:57:53;;;;;;;0.30;0.10;;;;;;;4.57;98.42;99903.50;5032418;28;21054;-53
2021/05/01 05:00:22;;;;;;;0.30;0.17;;;;;;;4.79;96.90;99898.84;5032492;28;20455;-54
2021/05/01 05:02:49;;;;;;;0.50;0.50;;;;;;;5.01;95.24;99895.06;5014999;28;20513;-54
2021/05/01 05:05:17;;;;;;;0.30;0.20;;;;;;;4.96;96.27;99898.66;5032116;28;20454;-54
2021/05/01 05:07:43;;;;;;;0.30;0.20;;;;;;;4.87;95.82;99899.63;5032614;28;20447;-54
2021/05/01 05:10:12;;;;;;;0.40;0.30;;;;;;;4.87;96.96;99898.78;5032506;28;20455;-54
2021/05/01 05:12:38;;;;;;;0.30;0.20;;;;;;;5.22;96.05;99898.34;5032225;28;20487;-54
2021/05/01 05:15:06;;;;;;;0.30;0.20;;;;;;;5.47;96.06;99905.00;5032067;28;20892;-54
2021/05/01 05:17:32;;;;;;;0.30;0.20;;;;;;;5.76;94.92;99903.72;5032180;28;20542;-54
2021/05/01 05:19:58;;;;;;;0.30;0.20;;;;;;;5.99;93.12;99898.97;5032002;28;20879;-54
2021/05/01 05:22:24;;;;;;;0.30;0.20;;;;;;;5.82;93.56;99907.13;5032440;28;20529;-54
2021/05/01 05:24:50;;;;;;;0.30;0.10;;;;;;;6.15;93.06;99915.41;5032031;28;20802;-56
2021/05/01 05:27:17;;;;;;;0.30;0.20;;;;;;;6.20;90.82;99918.88;5032332;28;20827;-55
2021/05/01 05:29:50;;;;;;;0.30;0.20;;;;;;;6.21;91.27;99920.59;5032133;28;20443;-56
2021/05/01 05:32:21;;;;;;;0.30;0.20;;;;;;;6.41;90.92;99917.59;5032005;28;20586;-56
2021/05/01 05:34:49;;;;;;;0.30;0.20;;;;;;;6.54;90.01;99920.00;5032413;28;20455;-56
2021/05/01 05:37:16;;;;;;;0.30;0.20;;;;;;;6.24;90.76;99924.06;5031841;28;20500;-56
2021/05/01 05:39:48;;;;;;;0.30;0.17;;;;;;;5.96;91.96;99924.53;5035362;28;20925;-56
2021/05/01 05:42:19;;;;;;;0.30;0.20;;;;;;;6.06;92.56;99924.38;5035772;28;20549;-56
2021/05/01 05:44:48;;;;;;;0.30;0.20;;;;;;;6.30;91.72;99924.84;5035970;28;20451;-56
2021/05/01 05:47:16;;;;;;;2.83;1.10;;;;;;;6.43;91.67;99927.22;5035886;28;20490;-59
2021/05/01 05:49:42;;;;;;;0.30;0.20;;;;;;;6.79;91.09;99928.34;5035984;28;20846;-59
2021/05/01 05:52:09;;;;;;;0.30;0.20;;;;;;;7.09;90.43;99936.56;5022586;28;20472;-58
2021/05/01 05:54:36;;;;;;;0.30;0.20;;;;;;;7.33;88.89;99928.13;5035889;28;20940;-58
2021/05/01 05:57:03;;;;;;;0.30;0.20;;;;;;;7.60;88.12;99933.72;5035601;28;20546;-58
2021/05/01 05:59:30;;;;;;;0.30;0.20;;;;;;;7.84;86.79;99932.31;5035974;28;20509;-59
2021/05/01 06:01:57;;;;;;;0.30;0.20;;;;;;;8.09;86.04;99930.81;5035749;28;20875;-58
2021/05/01 06:04:40;;;;;;;0.30;0.20;;;;;;;8.05;84.69;99934.44;5036024;28;20447;-58
2021/05/01 06:07:11;;;;;;;0.30;0.20;;;;;;;7.64;85.79;99927.47;5035601;28;20455;-58
2021/05/01 06:09:39;;;;;;;0.83;0.73;;;;;;;7.55;86.76;99923.25;5035607;28;20877;-58
2021/05/01 06:12:11;;;;;;;0.30;0.20;;;;;;;7.81;86.19;99920.03;5023089;28;20879;-59
2021/05/01 06:14:43;;;;;;;0.30;0.20;;;;;;;7.52;86.81;99925.06;5025321;28;20452;-58
2021/05/01 06:17:11;;;;;;;0.30;0.20;;;;;;;7.66;87.31;99925.63;5023776;28;20490;-58
2021/05/01 06:19:40;;;;;;;0.40;0.40;;;;;;;7.67;88.22;99925.59;5035295;28;20447;-58
2021/05/01 06:22:07;;;;;;;0.30;0.20;;;;;;;7.58;89.33;99925.84;5035311;28;20905;-58
2021/05/01 06:24:33;;;;;;;0.30;0.20;;;;;;;7.40;89.82;99931.50;5035145;28;20513;-59
2021/05/01 06:27:01;;;;;;;0.30;0.20;;;;;;;7.61;89.79;99931.03;5035414;28;20448;-59
2021/05/01 06:29:30;;;;;;;0.30;0.20;;;;;;;7.40;90.84;99934.16;5035039;28;20825;-58
2021/05/01 06:31:57;;;;;;;0.30;0.20;;;;;;;7.45;91.10;99936.72;5035225;28;20514;-59
2021/05/01 06:34:24;;;;;;;0.30;0.20;;;;;;;7.39;91.74;99924.47;5035096;28;20502;-59
2021/05/01 06:36:50;;;;;;;0.30;0.20;;;;;;;7.51;91.30;99936.56;5035069;28;20907;-59
2021/05/01 06:39:17;;;;;;;0.30;0.20;;;;;;;7.56;90.37;99938.22;5034963;28;20447;-59
2021/05/01 06:41:55;;;;;;;0.30;0.20;;;;;;;7.53;90.72;99937.41;5035156;28;20474;-59
2021/05/01 06:44:55;;;;;;;0.30;0.20;;;;;;;7.52;91.42;99931.25;5034726;28;20454;-58
2021/05/01 06:47:27;;;;;;;0.60;0.60;;;;;;;7.92;90.32;99928.56;4994453;28;20858;-59
2021/05/01 06:50:08;;;;;;;0.30;0.20;;;;;;;7.40;91.04;99937.69;5034396;28;20506;-58
2021/05/01 06:52:38;;;;;;;0.30;0.20;;;;;;;7.55;91.39;99932.97;5021373;28;20467;-59
2021/05/01 06:55:05;;;;;;;0.40;0.20;;;;;;;7.75;90.96;99935.16;5035752;28;20502;-58
2021/05/01 06:57:32;;;;;;;0.30;0.20;;;;;;;7.76;90.47;99935.13;5034829;28;20545;-58
2021/05/01 06:59:59;;;;;;;0.30;0.20;;;;;;;8.00;89.98;99929.25;5034726;28;20875;-59
2021/05/01 07:02:31;;;;;;;0.30;0.20;;;;;;;8.73;89.20;99941.56;5034438;28;20534;-59
2021/05/01 07:04:59;;;;;;;0.40;0.40;;;;;;;8.51;88.33;99952.75;5034380;28;20987;-58
2021/05/01 07:07:28;;;;;;;0.40;0.40;;;;;;;8.77;88.56;99954.72;5034480;28;20456;-58
2021/05/01 07:09:55;;;;;;;0.30;0.20;;;;;;;9.26;86.41;99942.72;5034495;28;20455;-58
2021/05/01 07:12:23;;;;;;;0.30;0.20;;;;;;;9.07;86.36;99938.88;5016550;28;20475;-59
2021/05/01 07:14:50;;;;;;;0.40;0.30;;;;;;;9.30;86.84;99931.13;5034230;28;20509;-59
2021/05/01 07:17:17;;;;;;;0.30;0.20;;;;;;;9.25;87.03;99940.13;5034377;28;20495;-58
2021/05/01 07:19:44;;;;;;;0.30;0.20;;;;;;;10.01;85.18;99948.44;5034252;28;20448;-59
2021/05/01 07:22:12;;;;;;;0.30;0.20;;;;;;;10.24;83.04;99950.38;5034356;28;20468;-59
2021/05/01 07:24:38;;;;;;;0.40;0.30;;;;;;;9.94;84.42;99942.44;5034098;28;20474;-59
2021/05/01 07:27:05;;;;;;;0.30;0.20;;;;;;;10.43;83.66;99943.53;5034077;28;20451;-59
2021/05/01 07:29:45;;;;;;;0.30;0.20;;;;;;;10.34;83.00;99930.56;5016570;28;20448;-59
2021/05/01 07:32:15;;;;;;;0.30;0.20;;;;;;;10.53;83.84;99921.03;5034194;28;20471;-59
2021/05/01 07:34:50;;;;;;;0.30;0.20;;;;;;;10.71;83.01;99916.88;5033961;28;20546;-59
2021/05/01 07:37:23;;;;;;;2.73;1.17;;;;;;;10.96;82.46;99923.06;5033822;28;20995;-58
2021/05/01 07:39:51;;;;;;;0.40;0.20;;;;;;;10.85;83.65;99927.91;5034018;28;20448;-58
2021/05/01 07:42:21;;;;;;;0.40;0.40;;;;;;;10.92;83.90;99921.44;5033795;28;20518;-59
2021/05/01 07:44:48;;;;;;;0.40;0.40;;;;;;;11.11;83.11;99920.78;5033898;28;20790;-59
2021/05/01 07:47:17;;;;;;;0.30;0.20;;;;;;;10.86;83.34;99919.00;5033921;28;20526;-59
2021/05/01 07:49:43;;;;;;;0.53;0.53;;;;;;;10.88;84.50;99921.59;5033608;28;20444;-59
2021/05/01 07:52:10;;;;;;;1.80;1.70;;;;;;;11.39;82.81;99925.94;5020171;28;20515;-59
2021/05/01 07:54:42;;;;;;;0.30;0.20;;;;;;;11.66;81.69;99910.69;5033836;28;20798;-59
2021/05/01 07:57:12;;;;;;;0.60;0.60;;;;;;;11.81;79.57;99907.47;5033579;28;20491;-59
2021/05/01 07:59:38;;;;;;;0.30;0.20;;;;;;;11.75;79.08;99902.34;5033466;28;20448;-59
2021/05/01 08:02:05;;;;;;;1.43;1.43;;;;;;;11.66;79.22;99911.56;5032409;28;20456;-59
2021/05/01 08:04:32;;;;;;;0.40;0.40;;;;;;;11.61;78.90;99907.34;5033233;28;20456;-59
2021/05/01 08:06:59;;;;;;;1.57;1.57;;;;;;;11.77;78.08;99903.13;5033611;28;20444;-59
2021/05/01 08:09:25;;;;;;;0.67;0.67;;;;;;;12.11;77.18;99902.69;5033628;28;20448;-59
2021/05/01 08:11:53;;;;;;;0.93;0.90;;;;;;;12.07;76.98;99907.28;5033188;28;20451;-59
2021/05/01 08:14:19;;;;;;;0.33;0.20;;;;;;;11.76;77.56;99912.06;5033288;28;20447;-59
2021/05/01 08:16:45;;;;;;;0.30;0.20;;;;;;;11.85;77.56;99917.06;5033519;28;20495;-59
2021/05/01 08:19:12;;;;;;;0.30;0.20;;;;;;;11.61;77.83;99902.00;5033494;28;20444;-59
2021/05/01 08:21:38;;;;;;;3.90;3.60;;;;;;;11.61;77.74;99916.19;5033136;28;20455;-59
2021/05/01 08:24:05;;;;;;;1.80;1.63;;;;;;;11.84;77.65;99910.88;5015844;28;20475;-59
2021/05/01 08:26:31;;;;;;;0.30;0.20;;;;;;;12.24;75.71;99906.59;5032931;28;20995;-59
2021/05/01 08:28:57;;;;;;;9.43;1.40;;;;;;;11.85;76.51;99901.09;5033177;28;20478;-59
2021/05/01 08:31:23;;;;;;;2.73;1.27;;;;;;;12.25;75.19;99891.47;5032835;28;20505;-59
2021/05/01 08:33:50;;;;;;;0.40;0.20;;;;;;;12.53;74.11;99891.16;5033412;28;20900;-59
2021/05/01 08:36:17;;;;;;;0.60;0.60;;;;;;;12.59;72.66;99899.75;5033012;28;20447;-59
2021/05/01 08:38:44;;;;;;;1.60;1.60;;;;;;;12.69;72.22;99911.75;5032920;28;20458;-55
2021/05/01 08:41:10;;;;;;;0.80;0.80;;;;;;;12.69;72.03;99917.09;5032677;28;20945;-58
2021/05/01 08:43:37;;;;;;;0.30;0.20;;;;;;;12.57;73.35;99927.41;5032683;28;20468;-58
2021/05/01 08:46:12;;;;;;;0.63;0.63;;;;;;;13.00;72.26;99923.75;5032776;28;20451;-57
2021/05/01 08:48:48;;;;;;;0.37;0.23;;;;;;;13.04;70.53;99931.56;5032579;28;20443;-57
2021/05/01 08:51:16;;;;;;;0.40;0.30;;;;;;;12.90;72.06;99927.78;5024639;28;20457;-57
2021/05/01 08:53:43;;;;;;;0.30;0.20;;;;;;;12.99;71.57;99927.34;5027745;28;20479;-58
2021/05/01 08:56:09;;;;;;;0.43;0.43;;;;;;;12.99;70.32;99938.03;5032292;28;20444;-57
2021/05/01 08:58:35;;;;;;;0.30;0.23;;;;;;;12.36;72.32;99929.19;5032163;28;20455;-58
2021/05/01 09:01:03;;;;;;;2.40;2.27;;;;;;;12.48;73.18;99926.03;5032518;28;20456;-57
2021/05/01 09:03:29;;;;;;;0.50;0.50;;;;;;;12.90;72.24;99933.97;5032317;28;20529;-57
2021/05/01 09:05:57;;;;;;;0.43;0.40;;;;;;;12.91;72.20;99930.38;5032415;28;20870;-58
2021/05/01 09:08:26;;;;;;;2.20;2.00;;;;;;;12.89;70.97;99923.38;5032298;28;20497;-58
2021/05/01 09:10:54;;;;;;;0.30;0.20;;;;;;;12.86;72.24;99936.81;5014973;28;20447;-57
2021/05/01 09:13:25;;;;;;;0.30;0.20;;;;;;;12.98;70.97;99944.28;5031751;28;20472;-58
2021/05/01 09:16:05;;;;;;;0.43;0.37;;;;;;;12.58;71.41;99923.81;5032566;28;20596;-57
2021/05/01 09:18:58;;;;;;;0.30;0.20;;;;;;;13.02;71.73;99919.22;5032246;28;20495;-57
2021/05/01 09:21:26;;;;;;;0.80;0.80;;;;;;;12.64;72.17;99921.75;5014573;28;20444;-57
2021/05/01 09:23:53;;;;;;;0.30;0.20;;;;;;;12.81;72.45;99933.50;5032417;28;20471;-58
2021/05/01 09:26:35;;;;;;;0.73;0.73;;;;;;;12.84;72.40;99931.56;5032208;28;20455;-57
2021/05/01 09:29:02;;;;;;;0.30;0.20;;;;;;;12.72;71.48;99911.63;5032043;28;20443;-58
2021/05/01 09:31:38;;;;;;;1.77;1.30;;;;;;;12.96;70.96;99909.69;5031931;28;20451;-58
2021/05/01 09:34:04;;;;;;;0.47;0.47;;;;;;;12.73;70.72;99918.69;5032050;28;20575;-57
2021/05/01 09:36:31;;;;;;;0.30;0.20;;;;;;;12.64;71.50;99920.91;5031833;28;20491;-57
2021/05/01 09:38:57;;;;;;;4.30;1.33;;;;;;;12.90;70.48;99914.44;5032050;28;20506;-57
2021/05/01 09:41:33;;;;;;;1.63;0.90;;;;;;;12.85;71.65;99919.09;5032014;28;20447;-57
2021/05/01 09:44:19;;;;;;;0.40;0.40;;;;;;;12.79;72.79;99914.91;5031869;28;21037;-58
2021/05/01 09:46:52;;;;;;;0.30;0.20;;;;;;;13.18;71.42;99922.06;5031924;28;20450;-58
2021/05/01 09:49:19;;;;;;;2.90;0.83;;;;;;;12.88;71.70;99921.59;5031932;28;20466;-54
2021/05/01 09:51:57;;;;;;;4.90;1.30;;;;;;;13.12;71.51;99903.66;5019614;28;20452;-57
2021/05/01 09:54:24;;;;;;;0.40;0.20;;;;;;;13.44;70.54;99891.56;5019591;28;20451;-56
2021/05/01 09:56:52;;;;;;;0.40;0.30;;;;;;;13.19;70.70;99894.47;5031573;28;20525;-55
2021/05/01 09:59:19;;;;;;;0.63;0.63;;;;;;;13.15;72.08;99904.38;5031918;28;21119;-55
2021/05/01 10:01:58;;;;;;;0.77;0.77;;;;;;;13.25;71.06;99900.38;5031913;28;20451;-55
2021/05/01 10:04:25;;;;;;;0.53;0.53;;;;;;;13.23;71.95;99904.06;5032066;28;20505;-55
2021/05/01 10:07:02;;;;;;;0.43;0.43;;;;;;;13.59;70.76;99898.84;5031799;28;20447;-55
2021/05/01 10:09:35;;;;;;;0.83;0.77;;;;;;;13.55;69.80;99897.22;5014221;28;20459;-55
2021/05/01 10:12:10;;;;;;;0.90;0.90;;;;;;;13.92;68.54;99897.22;5031547;28;20956;-55
2021/05/01 10:14:53;;;;;;;2.33;1.67;;;;;;;13.44;71.08;99894.22;5025176;28;20465;-55
2021/05/01 10:17:22;;;;;;;2.60;1.27;;;;;;;13.91;69.86;99897.28;5031592;28;20487;-55
2021/05/01 10:20:00;;;;;;;0.83;0.83;;;;;;;14.17;68.45;99888.84;5014258;28;20551;-54
2021/05/01 10:22:32;;;;;;;0.40;0.20;;;;;;;13.88;67.37;99892.97;5032099;28;20467;-54
2021/05/01 10:25:20;;;;;;;0.60;0.60;;;;;;;13.59;68.26;99893.50;5032139;28;20455;-54
2021/05/01 10:27:55;;;;;;;1.90;1.80;;;;;;;13.58;68.26;99897.97;5035041;28;20494;-54
2021/05/01 10:33:12;;;;;;;1.90;1.70;;;;;;;13.60;69.03;99879.19;5034919;28;21047;-54
2021/05/01 10:35:47;;;;;;;6.13;1.70;;;;;;;13.89;68.57;99888.47;5035205;28;20497;-54
2021/05/01 10:38:17;;;;;;;0.40;0.30;;;;;;;13.64;67.68;99895.00;5035145;28;20547;-54
2021/05/01 10:40:47;;;;;;;3.67;2.77;;;;;;;13.81;68.90;99894.19;5034705;28;20458;-54
2021/05/01 10:43:16;;;;;;;0.60;0.60;;;;;;;13.91;67.80;99890.13;5035088;28;20467;-54
2021/05/01 10:45:54;;;;;;;0.77;0.77;;;;;;;13.76;67.95;99887.34;5034772;28;20509;-54
2021/05/01 10:48:22;;;;;;;3.90;1.30;;;;;;;14.19;68.67;99878.09;5017099;28;20538;-55
2021/05/01 10:51:06;;;;;;;0.83;0.77;;;;;;;14.23;66.73;99880.50;5031904;28;20459;-55
2021/05/01 10:53:32;;;;;;;0.30;0.20;;;;;;;14.13;66.62;99875.72;5028520;28;20471;-55
2021/05/01 10:55:59;;;;;;;5.80;2.40;;;;;;;14.21;67.11;99874.38;5034471;28;20478;-55
2021/05/01 10:58:36;;;;;;;1.60;1.60;;;;;;;14.19;66.71;99881.63;5034111;28;20549;-55
2021/05/01 11:01:06;;;;;;;0.47;0.47;;;;;;;14.11;66.23;99883.78;5034510;28;20565;-55
2021/05/01 11:03:41;;;;;;;0.30;0.20;;;;;;;14.30;66.55;99891.78;5033882;28;20463;-55
2021/05/01 11:06:10;;;;;;;0.30;0.20;;;;;;;13.52;68.59;99886.69;5034689;28;20864;-54
2021/05/01 11:08:42;;;;;;;1.50;1.43;;;;;;;13.74;68.20;99886.56;5034079;28;20448;-55
2021/05/01 11:11:13;;;;;;;0.70;0.70;;;;;;;14.49;65.97;99883.72;5034386;28;20443;-55
2021/05/01 11:13:48;;;;;;;0.57;0.57;;;;;;;14.28;65.93;99876.75;5034027;28;20471;-55
2021/05/01 11:16:17;;;;;;;0.87;0.87;;;;;;;14.02;67.03;99878.06;5034428;28;20440;-55
2021/05/01 11:18:45;;;;;;;1.13;1.03;;;;;;;14.54;67.01;99881.69;5033972;28;20487;-55
2021/05/01 11:21:11;;;;;;;0.70;0.70;;;;;;;14.73;65.10;99881.59;5016614;28;20456;-55
2021/05/01 11:23:38;;;;;;;1.30;1.30;;;;;;;14.69;63.81;99877.34;5033802;28;20471;-55
2021/05/01 11:26:09;;;;;;;1.30;1.30;;;;;;;14.91;63.95;99866.38;5033646;28;20454;-55
2021/05/01 11:28:39;;;;;;;0.47;0.47;;;;;;;14.55;64.99;99871.84;5033739;28;20439;-55
2021/05/01 11:31:06;;;;;;;0.70;0.70;;;;;;;14.09;64.86;99872.31;5033760;28;20944;-55
2021/05/01 11:33:34;;;;;;;0.30;0.20;;;;;;;13.79;67.16;99873.84;5015899;28;20483;-55
2021/05/01 11:36:00;;;;;;;1.23;1.23;;;;;;;13.97;66.42;99864.03;5020661;28;20452;-55
2021/05/01 11:38:34;;;;;;;3.20;1.27;;;;;;;13.81;66.65;99853.25;5033979;28;20557;-55
2021/05/01 11:41:02;;;;;;;12.77;1.90;;;;;;;13.91;66.60;99857.22;5033538;28;20494;-55
2021/05/01 11:43:31;;;;;;;0.67;0.67;;;;;;;14.36;65.66;99854.03;5033897;28;20472;-57
2021/05/01 11:46:11;;;;;;;0.93;0.93;;;;;;;15.08;63.94;99848.47;5033498;28;20954;-55
2021/05/01 11:48:46;;;;;;;0.43;0.37;;;;;;;14.88;63.86;99842.44;5033829;28;20494;-55
2021/05/01 11:51:21;;;;;;;1.53;1.53;;;;;;;14.61;62.42;99842.97;5026261;28;20444;-55